KBUR/BUR METAR and TAF weather

Enter ICAO airport designator
Station Type Date Time Source
KBUR METAR 2021/03/05 00:53 UTC NOAA

KBUR 050053Z 20005KT 10SM CLR 17/04 A3022 RMK AO2 SLP225 T01720044 $


Station Type Date Time Source
KBUR Decoded METAR 2021/03/05 00:53 UTC NOAA

BURBANK-GLENDALE-PASADENA, CA, United States (KBUR) 34-12N 118-22W 217M
Mar 04, 2021 - 07:53 PM EST / 2021.03.05 0053 UTC
Wind: from the SSW (200 degrees) at 6 MPH (5 KT):0
Visibility: 10 mile(s):0
Sky conditions: clear
Temperature: 63.0 F (17.2 C)
Dew Point: 39.9 F (4.4 C)
Relative Humidity: 42%
Pressure (altimeter): 30.22 in. Hg (1023 hPa)
ob: KBUR 050053Z 20005KT 10SM CLR 17/04 A3022 RMK AO2 SLP225 T01720044
cycle: 1

Station Type Date Time Source
KBUR TAF 2021/03/04 18:45 UTC NOAA

TAF KBUR 041743Z 0418/0518 VRB03KT P6SM SKC
FM042100 18006KT P6SM SKC
FM050400 VRB03KT P6SM SKC

Example: see airport list